Time;durP1;ratioP1;P1;durP2;ratioP2;P2;SDS_P1;SDS_P2;PMS_P1;PMS_P2;Temp;Humidity;BMP_temperature;BMP_pressure;BME280_temperature;BME280_humidity;BME280_pressure;Samples;Min_cycle;Max_cycle;Signal;HPM_P1;HPM_P2
2022/08/20 00:01:44;;;;;;;50.88;30.52;;;;;;;;;;4874979;29;20142;-81
2022/08/20 00:04:10;;;;;;;45.40;29.70;;;;;;;;;;4873944;29;20054;-81
2022/08/20 00:06:36;;;;;;;55.53;30.98;;;;;;;;;;4890980;29;20059;-81
2022/08/20 00:09:02;;;;;;;53.45;30.02;;;;;;;;;;4845962;29;20535;-81
2022/08/20 00:11:27;;;;;;;50.70;27.90;;;;;;;;;;4845224;29;20040;-82
2022/08/20 00:13:55;;;;;;;56.05;31.73;;;;;;;;;;4917708;29;20038;-82
2022/08/20 00:16:21;;;;;;;56.88;30.95;;;;;;;;;;4892328;29;20072;-82
2022/08/20 00:18:47;;;;;;;52.15;29.30;;;;;;;;;;4855685;29;20032;-82
2022/08/20 00:21:13;;;;;;;62.42;32.47;;;;;;;;;;4876591;29;20035;-82
2022/08/20 00:23:39;;;;;;;61.58;32.53;;;;;;;;;;4875851;29;20556;-82
2022/08/20 00:26:05;;;;;;;49.90;29.25;;;;;;;;;;4859059;29;20035;-82
2022/08/20 00:28:30;;;;;;;48.08;28.35;;;;;;;;;;4906969;29;20147;-83
2022/08/20 00:30:56;;;;;;;44.97;28.88;;;;;;;;;;4890595;29;20147;-83
2022/08/20 00:33:21;;;;;;;55.50;29.98;;;;;;;;;;4891376;29;20064;-82
2022/08/20 00:35:52;;;;;;;57.92;29.35;;;;;;;;;;4876695;29;20028;-82
2022/08/20 00:38:17;;;;;;;49.38;30.95;;;;;;;;;;4876330;29;20116;-83
2022/08/20 00:40:45;;;;;;;50.25;29.23;;;;;;;;;;4873618;29;20122;-82
2022/08/20 00:43:44;;;;;;;60.50;33.03;;;;;;;;;;4899262;29;20058;-83
2022/08/20 00:46:21;;;;;;;50.95;31.42;;;;;;;;;;4888005;29;20063;-83
2022/08/20 00:48:48;;;;;;;52.88;31.88;;;;;;;;;;4859350;29;20083;-82
2022/08/20 00:51:26;;;;;;;52.72;31.38;;;;;;;;;;4856881;29;20040;-84
2022/08/20 00:54:05;;;;;;;51.42;28.85;;;;;;;;;;4891366;29;20043;-82
2022/08/20 00:56:32;;;;;;;55.90;30.48;;;;;;;;;;4894201;29;20583;-81
2022/08/20 00:58:58;;;;;;;48.65;28.80;;;;;;;;;;4878810;29;20032;-83
2022/08/20 01:01:23;;;;;;;47.35;29.63;;;;;;;;;;4859631;29;20036;-83
2022/08/20 01:03:48;;;;;;;46.67;29.17;;;;;;;;;;4861118;29;20557;-82
2022/08/20 01:06:14;;;;;;;46.97;28.35;;;;;;;;;;4893090;29;20028;-82
2022/08/20 01:08:39;;;;;;;49.88;28.40;;;;;;;;;;4876697;29;20063;-82
2022/08/20 01:11:09;;;;;;;47.45;28.50;;;;;;;;;;4877527;29;20038;-82
2022/08/20 01:13:36;;;;;;;40.13;27.25;;;;;;;;;;4889140;29;20039;-82
2022/08/20 01:16:02;;;;;;;41.92;27.98;;;;;;;;;;4922506;29;20024;-82
2022/08/20 01:18:28;;;;;;;46.55;26.50;;;;;;;;;;4874766;29;20369;-82
2022/08/20 01:21:02;;;;;;;48.33;26.25;;;;;;;;;;4888157;29;20508;-82
2022/08/20 01:23:53;;;;;;;52.90;28.13;;;;;;;;;;4892356;29;20040;-82
2022/08/20 01:26:31;;;;;;;50.58;28.73;;;;;;;;;;4893325;29;20040;-82
2022/08/20 01:29:19;;;;;;;44.97;27.05;;;;;;;;;;4891377;29;20468;-82
2022/08/20 01:31:44;;;;;;;46.20;26.10;;;;;;;;;;4861933;29;20048;-82
2022/08/20 01:34:12;;;;;;;42.55;27.25;;;;;;;;;;4861434;29;20172;-82
2022/08/20 01:36:42;;;;;;;45.03;27.77;;;;;;;;;;4860052;29;20021;-82
2022/08/20 01:39:09;;;;;;;44.63;26.05;;;;;;;;;;4891855;29;20148;-82
2022/08/20 01:41:51;;;;;;;43.75;27.42;;;;;;;;;;4909341;29;20040;-82
2022/08/20 01:44:18;;;;;;;46.13;27.50;;;;;;;;;;4905775;29;20062;-82
2022/08/20 01:46:45;;;;;;;46.47;28.52;;;;;;;;;;4874460;29;20043;-82
2022/08/20 01:49:17;;;;;;;44.38;26.83;;;;;;;;;;4906325;29;20027;-82
2022/08/20 01:51:42;;;;;;;37.45;25.77;;;;;;;;;;4888382;29;20032;-82
2022/08/20 01:54:08;;;;;;;44.55;25.27;;;;;;;;;;4911385;29;20042;-82
2022/08/20 01:56:33;;;;;;;46.70;26.80;;;;;;;;;;4891885;29;20031;-82
2022/08/20 01:59:00;;;;;;;46.50;28.20;;;;;;;;;;4910318;29;20035;-82
2022/08/20 02:01:25;;;;;;;47.85;28.67;;;;;;;;;;4911273;29;20060;-81
2022/08/20 02:03:51;;;;;;;51.72;28.60;;;;;;;;;;4910117;29;20036;-82
2022/08/20 02:06:16;;;;;;;45.03;28.00;;;;;;;;;;4882765;29;20024;-82
2022/08/20 02:08:42;;;;;;;47.72;30.35;;;;;;;;;;4898677;29;20059;-83
2022/08/20 02:11:08;;;;;;;44.35;27.77;;;;;;;;;;4880243;29;20611;-83
2022/08/20 02:13:33;;;;;;;49.20;28.75;;;;;;;;;;4877093;29;20039;-83
2022/08/20 02:15:58;;;;;;;49.00;29.00;;;;;;;;;;4881302;29;20543;-83
2022/08/20 02:18:24;;;;;;;52.00;29.40;;;;;;;;;;4882196;29;20171;-82
2022/08/20 02:20:49;;;;;;;50.85;28.83;;;;;;;;;;4914931;29;20062;-83
2022/08/20 02:23:15;;;;;;;48.30;28.05;;;;;;;;;;4882917;29;20032;-83
2022/08/20 02:25:40;;;;;;;47.20;28.98;;;;;;;;;;4927846;29;20499;-83
2022/08/20 02:28:08;;;;;;;45.22;28.73;;;;;;;;;;4894302;29;20060;-83
2022/08/20 02:30:36;;;;;;;55.17;30.40;;;;;;;;;;4914864;29;20368;-83
2022/08/20 02:33:03;;;;;;;50.00;28.65;;;;;;;;;;4879390;29;20035;-83
2022/08/20 02:35:29;;;;;;;63.90;29.30;;;;;;;;;;4908252;29;20024;-83
2022/08/20 02:37:54;;;;;;;49.55;28.65;;;;;;;;;;4930307;29;20111;-83
2022/08/20 02:40:20;;;;;;;57.33;29.05;;;;;;;;;;4910606;29;20042;-83
2022/08/20 02:42:46;;;;;;;46.28;27.15;;;;;;;;;;4889697;29;20112;-83
2022/08/20 02:45:14;;;;;;;56.72;29.58;;;;;;;;;;4909667;29;20090;-83
2022/08/20 02:47:40;;;;;;;46.60;28.75;;;;;;;;;;4864495;29;20031;-83
2022/08/20 02:50:06;;;;;;;54.80;30.48;;;;;;;;;;4863315;29;20036;-82
2022/08/20 02:52:31;;;;;;;47.20;28.58;;;;;;;;;;4911684;29;20127;-81
2022/08/20 02:54:57;;;;;;;52.60;31.08;;;;;;;;;;4894843;29;20039;-82
2022/08/20 02:57:22;;;;;;;56.50;31.65;;;;;;;;;;4879875;29;20028;-82
2022/08/20 02:59:47;;;;;;;54.92;30.17;;;;;;;;;;4878401;29;20429;-81
2022/08/20 03:02:13;;;;;;;50.15;29.17;;;;;;;;;;4908664;29;20032;-81
2022/08/20 03:04:39;;;;;;;49.88;29.67;;;;;;;;;;4863611;29;20051;-81
2022/08/20 03:07:04;;;;;;;56.05;31.40;;;;;;;;;;4848254;29;20031;-83
2022/08/20 03:09:30;;;;;;;55.08;30.85;;;;;;;;;;4916944;29;20020;-84
2022/08/20 03:11:55;;;;;;;49.72;28.48;;;;;;;;;;4892928;29;20035;-85
2022/08/20 03:14:21;;;;;;;59.97;32.65;;;;;;;;;;4904617;29;20548;-85
2022/08/20 03:16:46;;;;;;;54.28;30.63;;;;;;;;;;4873396;29;20500;-84
2022/08/20 03:19:12;;;;;;;60.63;30.80;;;;;;;;;;4848045;29;20034;-83
2022/08/20 03:21:38;;;;;;;60.80;31.27;;;;;;;;;;4878450;29;20047;-82
2022/08/20 03:24:03;;;;;;;53.75;31.30;;;;;;;;;;4848922;29;20032;-83
2022/08/20 03:26:28;;;;;;;49.53;29.38;;;;;;;;;;4864653;29;20501;-83
2022/08/20 03:28:54;;;;;;;54.33;31.38;;;;;;;;;;4861880;29;20092;-83
2022/08/20 03:31:19;;;;;;;55.95;31.38;;;;;;;;;;4865639;29;20042;-83
2022/08/20 03:33:45;;;;;;;58.05;31.38;;;;;;;;;;4895861;29;20155;-83
2022/08/20 03:36:10;;;;;;;60.28;32.17;;;;;;;;;;4907911;29;20032;-83
2022/08/20 03:38:35;;;;;;;65.88;31.98;;;;;;;;;;4896361;29;20115;-83
2022/08/20 03:41:01;;;;;;;62.72;32.35;;;;;;;;;;4867849;29;20032;-83
2022/08/20 03:43:26;;;;;;;56.40;31.98;;;;;;;;;;4881334;29;20045;-84
2022/08/20 03:45:52;;;;;;;61.53;33.20;;;;;;;;;;4911079;29;20535;-83
2022/08/20 03:48:18;;;;;;;60.30;31.17;;;;;;;;;;4911280;29;20044;-83
2022/08/20 03:50:44;;;;;;;66.93;31.95;;;;;;;;;;4898539;29;20106;-82
2022/08/20 03:53:10;;;;;;;59.28;30.90;;;;;;;;;;4879748;29;20511;-82
2022/08/20 03:55:36;;;;;;;51.58;30.15;;;;;;;;;;4878813;29;20110;-82
2022/08/20 03:58:04;;;;;;;55.42;31.60;;;;;;;;;;4893857;29;20111;-83
2022/08/20 04:00:42;;;;;;;57.13;32.30;;;;;;;;;;4862604;29;20048;-82
2022/08/20 04:03:07;;;;;;;66.97;32.28;;;;;;;;;;4892605;29;20040;-83
2022/08/20 04:05:33;;;;;;;59.63;32.05;;;;;;;;;;4910329;29;20051;-83
2022/08/20 04:07:59;;;;;;;57.88;32.10;;;;;;;;;;4859013;29;20036;-83
2022/08/20 04:10:24;;;;;;;60.15;31.55;;;;;;;;;;4862556;29;20063;-83
2022/08/20 04:12:50;;;;;;;51.85;30.88;;;;;;;;;;4870672;29;20040;-82
2022/08/20 04:15:16;;;;;;;60.17;31.55;;;;;;;;;;4893436;29;20424;-82
2022/08/20 04:17:43;;;;;;;56.83;29.45;;;;;;;;;;4862078;29;20032;-82
2022/08/20 04:20:11;;;;;;;63.05;31.02;;;;;;;;;;4909875;29;20028;-82
2022/08/20 04:22:36;;;;;;;56.70;31.63;;;;;;;;;;4922103;29;20087;-82
2022/08/20 04:25:05;;;;;;;64.75;31.65;;;;;;;;;;4865609;29;20123;-82
2022/08/20 04:27:31;;;;;;;51.10;29.38;;;;;;;;;;4869582;29;20028;-83
2022/08/20 04:29:58;;;;;;;51.58;28.40;;;;;;;;;;4895564;29;20586;-83
2022/08/20 04:32:24;;;;;;;46.13;28.30;;;;;;;;;;4879138;29;20059;-81
2022/08/20 04:34:50;;;;;;;49.17;26.27;;;;;;;;;;4875203;29;20067;-81
2022/08/20 04:37:19;;;;;;;56.15;27.95;;;;;;;;;;4913813;29;20496;-82
2022/08/20 04:40:52;;;;;;;50.00;27.38;;;;;;;;;;4913203;29;20032;-82
2022/08/20 04:42:30;;;;;;;44.63;25.38;;;;;;;;;;4908940;29;20056;-82
2022/08/20 04:44:55;;;;;;;46.53;27.90;;;;;;;;;;4886611;29;20257;-82
2022/08/20 04:47:21;;;;;;;45.45;26.42;;;;;;;;;;4901519;29;20038;-82
2022/08/20 04:49:46;;;;;;;50.30;26.35;;;;;;;;;;4935649;29;20146;-82
2022/08/20 04:52:13;;;;;;;50.80;26.15;;;;;;;;;;4902722;29;20131;-82
2022/08/20 04:54:38;;;;;;;40.00;24.40;;;;;;;;;;4933425;29;20458;-82
2022/08/20 04:57:03;;;;;;;53.72;27.52;;;;;;;;;;4928111;29;20035;-82
2022/08/20 04:59:29;;;;;;;52.78;28.20;;;;;;;;;;4934038;29;20030;-82
2022/08/20 05:01:54;;;;;;;55.58;27.92;;;;;;;;;;4910190;29;20035;-82
2022/08/20 05:04:19;;;;;;;58.35;28.08;;;;;;;;;;4939460;29;20046;-81
2022/08/20 05:06:45;;;;;;;53.33;27.05;;;;;;;;;;4934430;29;20440;-82
2022/08/20 05:09:10;;;;;;;48.08;26.73;;;;;;;;;;4901811;29;20024;-82
2022/08/20 05:11:36;;;;;;;51.80;26.45;;;;;;;;;;4913823;29;20048;-81
2022/08/20 05:14:02;;;;;;;46.13;24.42;;;;;;;;;;4939190;29;20039;-82
2022/08/20 05:16:28;;;;;;;50.28;25.80;;;;;;;;;;4902056;29;20338;-82
2022/08/20 05:18:53;;;;;;;44.55;26.15;;;;;;;;;;4933691;29;20035;-82
2022/08/20 05:21:19;;;;;;;52.42;27.85;;;;;;;;;;4917891;29;20114;-82
2022/08/20 05:23:45;;;;;;;46.35;27.30;;;;;;;;;;4918786;29;20050;-82
2022/08/20 05:26:10;;;;;;;46.10;24.60;;;;;;;;;;4933530;29;20066;-81
2022/08/20 05:28:37;;;;;;;48.25;26.90;;;;;;;;;;4933371;29;20563;-82
2022/08/20 05:31:04;;;;;;;53.70;25.80;;;;;;;;;;4949231;29;20547;-82
2022/08/20 05:33:29;;;;;;;55.10;26.75;;;;;;;;;;4918274;29;20055;-82
2022/08/20 05:35:55;;;;;;;40.72;24.70;;;;;;;;;;4902721;29;20024;-82
2022/08/20 05:38:23;;;;;;;45.08;25.90;;;;;;;;;;4898366;29;20094;-84
2022/08/20 05:40:49;;;;;;;44.83;24.50;;;;;;;;;;4913273;29;20037;-82
2022/08/20 05:43:14;;;;;;;49.63;25.08;;;;;;;;;;4917341;29;20531;-82
2022/08/20 05:45:41;;;;;;;40.78;22.88;;;;;;;;;;4919264;29;20035;-81
2022/08/20 05:48:10;;;;;;;46.88;23.52;;;;;;;;;;4919254;29;20437;-82
2022/08/20 05:50:36;;;;;;;37.72;21.38;;;;;;;;;;4907968;29;20083;-83
2022/08/20 05:53:02;;;;;;;42.22;21.35;;;;;;;;;;4952735;29;20248;-83
2022/08/20 05:55:27;;;;;;;31.67;18.20;;;;;;;;;;4936096;29;20142;-84
2022/08/20 05:58:00;;;;;;;27.42;17.17;;;;;;;;;;4913220;29;20038;-84
2022/08/20 06:00:26;;;;;;;36.10;17.25;;;;;;;;;;4943055;29;20039;-84
2022/08/20 06:05:36;;;;;;;30.40;17.30;;;;;;;;;;4949117;29;20036;-83
2022/08/20 06:08:04;;;;;;;33.03;17.10;;;;;;;;;;4963452;29;20099;-83
2022/08/20 06:10:29;;;;;;;33.00;16.95;;;;;;;;;;4933601;29;20032;-83
2022/08/20 06:12:54;;;;;;;28.75;17.23;;;;;;;;;;4897504;29;20040;-83
2022/08/20 06:15:20;;;;;;;31.58;16.75;;;;;;;;;;4946372;29;20038;-83
2022/08/20 06:17:45;;;;;;;26.05;15.57;;;;;;;;;;4929486;29;20024;-83
2022/08/20 06:20:11;;;;;;;25.67;14.85;;;;;;;;;;4945481;29;20054;-83
2022/08/20 06:22:36;;;;;;;24.23;13.63;;;;;;;;;;4917549;29;20365;-83
2022/08/20 06:25:03;;;;;;;23.52;12.63;;;;;;;;;;4926296;29;20616;-82
2022/08/20 06:27:28;;;;;;;22.45;12.48;;;;;;;;;;4907513;29;20062;-82
2022/08/20 06:29:55;;;;;;;28.33;12.88;;;;;;;;;;4928007;29;20035;-83
2022/08/20 06:32:23;;;;;;;29.80;12.48;;;;;;;;;;4910675;29;20090;-83
2022/08/20 06:34:50;;;;;;;26.98;11.23;;;;;;;;;;4916773;29;20035;-83
2022/08/20 06:37:20;;;;;;;19.02;9.80;;;;;;;;;;4931563;29;20039;-83
2022/08/20 06:39:45;;;;;;;25.90;10.02;;;;;;;;;;4930471;29;20038;-83
2022/08/20 06:42:12;;;;;;;17.88;9.20;;;;;;;;;;4928791;29;20055;-83
2022/08/20 06:44:37;;;;;;;17.30;8.55;;;;;;;;;;4914963;29;20027;-83
2022/08/20 06:47:03;;;;;;;25.90;9.88;;;;;;;;;;4926934;29;20097;-83
2022/08/20 06:49:28;;;;;;;20.08;9.35;;;;;;;;;;4910807;29;20042;-83
2022/08/20 06:51:54;;;;;;;19.88;10.35;;;;;;;;;;4906122;29;20143;-83
2022/08/20 06:54:20;;;;;;;22.17;9.45;;;;;;;;;;4934405;29;20040;-83
2022/08/20 06:56:45;;;;;;;14.88;9.93;;;;;;;;;;4917644;29;20506;-83
2022/08/20 06:59:10;;;;;;;25.20;8.65;;;;;;;;;;4942658;29;20448;-83
2022/08/20 07:01:36;;;;;;;20.73;7.43;;;;;;;;;;4924976;29;20138;-83
2022/08/20 07:04:01;;;;;;;18.27;7.72;;;;;;;;;;4957312;29;20031;-83
2022/08/20 07:06:27;;;;;;;20.23;7.30;;;;;;;;;;4957460;28;20040;-83
2022/08/20 07:08:53;;;;;;;21.08;7.07;;;;;;;;;;4958489;29;20035;-84
2022/08/20 07:11:19;;;;;;;18.40;6.05;;;;;;;;;;4928904;29;20038;-83
2022/08/20 07:13:45;;;;;;;16.25;5.13;;;;;;;;;;4934336;29;20036;-83
2022/08/20 07:16:10;;;;;;;18.08;5.55;;;;;;;;;;4906914;29;20114;-84
2022/08/20 07:18:35;;;;;;;21.15;5.00;;;;;;;;;;4933760;29;20096;-83
2022/08/20 07:21:01;;;;;;;11.25;4.57;;;;;;;;;;4919854;29;20047;-83
2022/08/20 07:23:26;;;;;;;13.57;4.97;;;;;;;;;;4922508;29;20072;-82
2022/08/20 07:25:52;;;;;;;15.60;4.75;;;;;;;;;;4926948;29;21267;-82
2022/08/20 07:28:19;;;;;;;17.60;4.40;;;;;;;;;;4939095;29;20037;-82
2022/08/20 07:33:29;;;;;;;12.15;4.15;;;;;;;;;;4943946;29;20027;-83
2022/08/20 07:35:59;;;;;;;10.30;3.33;;;;;;;;;;4937606;29;20146;-82
2022/08/20 07:38:25;;;;;;;15.30;4.25;;;;;;;;;;4950747;29;20047;-82
2022/08/20 07:41:03;;;;;;;11.55;3.30;;;;;;;;;;4933278;29;20019;-81
2022/08/20 07:43:29;;;;;;;11.68;3.40;;;;;;;;;;4933684;29;20102;-86
2022/08/20 07:45:56;;;;;;;14.00;3.35;;;;;;;;;;4917029;29;20074;-83
2022/08/20 07:48:24;;;;;;;9.35;2.55;;;;;;;;;;4916614;29;20091;-84
2022/08/20 07:50:50;;;;;;;14.15;2.58;;;;;;;;;;4894672;29;20039;-84
2022/08/20 07:53:16;;;;;;;12.52;2.88;;;;;;;;;;4909137;29;20031;-83
2022/08/20 07:55:41;;;;;;;10.23;2.33;;;;;;;;;;4923423;29;20535;-84
2022/08/20 07:58:11;;;;;;;12.90;2.72;;;;;;;;;;4909768;29;21167;-84
2022/08/20 08:00:37;;;;;;;8.82;2.33;;;;;;;;;;4911529;29;20055;-84
2022/08/20 08:03:02;;;;;;;9.43;2.42;;;;;;;;;;4909120;29;20514;-83
2022/08/20 08:05:29;;;;;;;10.50;2.30;;;;;;;;;;4893626;29;20031;-83
2022/08/20 08:07:54;;;;;;;7.75;1.95;;;;;;;;;;4911800;29;20524;-83
2022/08/20 08:10:20;;;;;;;9.98;2.33;;;;;;;;;;4894583;29;20030;-83
2022/08/20 08:12:52;;;;;;;13.65;2.65;;;;;;;;;;4913202;29;20042;-84
2022/08/20 08:15:21;;;;;;;8.25;2.45;;;;;;;;;;4895277;29;20031;-84
2022/08/20 08:17:47;;;;;;;8.65;1.77;;;;;;;;;;4880404;29;20032;-84
2022/08/20 08:20:13;;;;;;;9.15;2.13;;;;;;;;;;4894483;29;20464;-85
2022/08/20 08:22:41;;;;;;;11.63;2.13;;;;;;;;;;4895814;29;20087;-84
2022/08/20 08:25:07;;;;;;;6.22;1.65;;;;;;;;;;4922413;29;20038;-84
2022/08/20 08:27:33;;;;;;;10.65;2.45;;;;;;;;;;4899419;29;20123;-83
2022/08/20 08:29:59;;;;;;;7.70;1.65;;;;;;;;;;4915292;29;20466;-83
2022/08/20 08:32:25;;;;;;;10.52;2.35;;;;;;;;;;4899087;29;20028;-83
2022/08/20 08:34:50;;;;;;;9.52;1.85;;;;;;;;;;4930867;29;20490;-84
2022/08/20 08:37:16;;;;;;;7.55;1.73;;;;;;;;;;4947486;29;20082;-83
2022/08/20 08:39:41;;;;;;;9.23;1.80;;;;;;;;;;4931158;29;20492;-84
2022/08/20 08:42:19;;;;;;;10.70;1.98;;;;;;;;;;4895407;29;20131;-84
2022/08/20 08:44:45;;;;;;;9.77;2.20;;;;;;;;;;4895773;29;20497;-83
2022/08/20 08:47:23;;;;;;;5.03;1.40;;;;;;;;;;4879798;29;20119;-84
2022/08/20 08:49:49;;;;;;;4.70;1.38;;;;;;;;;;4865668;29;20032;-83
2022/08/20 08:52:34;;;;;;;5.07;1.25;;;;;;;;;;4880085;29;20115;-83
2022/08/20 08:55:03;;;;;;;7.35;1.65;;;;;;;;;;4879146;29;20040;-84
2022/08/20 08:57:28;;;;;;;7.20;1.67;;;;;;;;;;4896208;29;20024;-83
2022/08/20 09:00:16;;;;;;;5.88;1.70;;;;;;;;;;4911208;29;20476;-83
2022/08/20 09:02:54;;;;;;;9.23;1.70;;;;;;;;;;4892590;29;20037;-83
2022/08/20 09:05:20;;;;;;;6.82;1.98;;;;;;;;;;4892499;29;20683;-83
2022/08/20 09:07:49;;;;;;;5.90;1.52;;;;;;;;;;4894056;29;20115;-84
2022/08/20 09:10:16;;;;;;;8.07;1.67;;;;;;;;;;4880313;29;20040;-84
2022/08/20 09:12:43;;;;;;;8.38;1.83;;;;;;;;;;4881410;29;20537;-83
2022/08/20 09:15:09;;;;;;;8.50;2.28;;;;;;;;;;4895659;29;20378;-83
2022/08/20 09:17:34;;;;;;;4.82;1.52;;;;;;;;;;4881791;29;20118;-84
2022/08/20 09:19:59;;;;;;;4.63;1.30;;;;;;;;;;4881946;29;20111;-83
2022/08/20 09:22:25;;;;;;;7.25;1.63;;;;;;;;;;4884189;29;20082;-83
2022/08/20 09:24:50;;;;;;;8.75;1.77;;;;;;;;;;4884037;29;20122;-83
2022/08/20 09:27:15;;;;;;;7.25;1.75;;;;;;;;;;4883232;29;20115;-83
2022/08/20 09:29:41;;;;;;;6.65;1.65;;;;;;;;;;4915935;29;20046;-83
2022/08/20 09:32:12;;;;;;;6.65;1.50;;;;;;;;;;4915245;29;20119;-82
2022/08/20 09:34:38;;;;;;;8.02;2.72;;;;;;;;;;4898106;29;20066;-83
2022/08/20 09:37:04;;;;;;;4.75;1.58;;;;;;;;;;4895817;29;20112;-83
2022/08/20 09:39:29;;;;;;;7.10;1.85;;;;;;;;;;4881201;29;20488;-82
2022/08/20 09:41:55;;;;;;;6.05;1.92;;;;;;;;;;4904581;29;20111;-83
2022/08/20 09:44:20;;;;;;;6.05;1.40;;;;;;;;;;4918591;29;20487;-83
2022/08/20 09:46:45;;;;;;;12.02;1.75;;;;;;;;;;4919122;29;20036;-83
2022/08/20 09:49:11;;;;;;;5.80;1.80;;;;;;;;;;4927573;29;20448;-82
2022/08/20 09:51:36;;;;;;;8.38;2.22;;;;;;;;;;4910507;29;20071;-83
2022/08/20 09:54:02;;;;;;;8.20;1.77;;;;;;;;;;4882734;29;20035;-85
2022/08/20 09:56:28;;;;;;;12.48;1.70;;;;;;;;;;4929688;29;20063;-86
2022/08/20 09:58:53;;;;;;;6.50;1.60;;;;;;;;;;4892851;29;20143;-86
2022/08/20 10:01:20;;;;;;;7.75;1.88;;;;;;;;;;4899194;29;20122;-86
2022/08/20 10:03:48;;;;;;;9.82;1.80;;;;;;;;;;4881006;29;20491;-87
2022/08/20 10:06:15;;;;;;;9.40;2.10;;;;;;;;;;4915234;29;20036;-86
2022/08/20 10:08:41;;;;;;;11.35;1.90;;;;;;;;;;4901578;29;20500;-86
2022/08/20 10:11:07;;;;;;;9.40;1.83;;;;;;;;;;4933678;29;20112;-85
2022/08/20 10:13:32;;;;;;;10.25;2.25;;;;;;;;;;4922120;29;20059;-82
2022/08/20 10:15:57;;;;;;;10.10;2.42;;;;;;;;;;4933371;29;20070;-85
2022/08/20 10:18:23;;;;;;;7.28;1.80;;;;;;;;;;4901096;29;20598;-84
2022/08/20 10:20:48;;;;;;;11.43;2.13;;;;;;;;;;4915091;29;20039;-88
2022/08/20 10:23:14;;;;;;;4.75;1.50;;;;;;;;;;4931694;29;20024;-85
2022/08/20 10:25:47;;;;;;;7.90;1.50;;;;;;;;;;4916999;29;20102;-85
2022/08/20 10:31:05;;;;;;;8.93;1.88;;;;;;;;;;4892913;29;20407;-85
2022/08/20 10:33:31;;;;;;;9.90;2.10;;;;;;;;;;4908579;29;20551;-85
2022/08/20 10:35:56;;;;;;;8.50;1.88;;;;;;;;;;4897098;29;20086;-86
2022/08/20 10:38:21;;;;;;;12.93;2.33;;;;;;;;;;4882633;29;20181;-86
2022/08/20 10:40:47;;;;;;;7.32;1.80;;;;;;;;;;4896193;29;20503;-86
2022/08/20 10:43:12;;;;;;;12.68;2.38;;;;;;;;;;4870297;29;20247;-88
2022/08/20 10:45:38;;;;;;;6.40;1.63;;;;;;;;;;4909664;29;20028;-85
2022/08/20 10:48:06;;;;;;;8.25;1.80;;;;;;;;;;4920204;29;20108;-84
2022/08/20 10:50:31;;;;;;;8.90;2.28;;;;;;;;;;4893798;29;20405;-85
2022/08/20 10:52:57;;;;;;;7.15;2.13;;;;;;;;;;4909917;29;20047;-86
2022/08/20 10:55:22;;;;;;;8.00;2.25;;;;;;;;;;4877071;29;20099;-83
2022/08/20 10:57:47;;;;;;;4.90;1.50;;;;;;;;;;4905767;29;20221;-84
2022/08/20 11:00:14;;;;;;;6.95;1.58;;;;;;;;;;4863220;29;20552;-83
2022/08/20 11:02:39;;;;;;;9.80;2.00;;;;;;;;;;4862860;29;20111;-84
2022/08/20 11:05:05;;;;;;;7.47;2.10;;;;;;;;;;4923330;29;20123;-84
2022/08/20 11:07:38;;;;;;;5.88;1.42;;;;;;;;;;4913292;29;20484;-84
2022/08/20 11:10:05;;;;;;;9.93;2.30;;;;;;;;;;4875846;29;20040;-83
2022/08/20 11:12:30;;;;;;;10.93;2.22;;;;;;;;;;4901141;29;20028;-84
2022/08/20 11:14:56;;;;;;;9.75;1.90;;;;;;;;;;4924926;29;20026;-84
2022/08/20 11:17:25;;;;;;;10.48;2.15;;;;;;;;;;4922795;29;20031;-85
2022/08/20 11:19:51;;;;;;;8.88;2.00;;;;;;;;;;4858213;29;20044;-86
2022/08/20 11:22:16;;;;;;;6.53;1.60;;;;;;;;;;4899746;29;20043;-84
2022/08/20 11:24:45;;;;;;;11.25;1.80;;;;;;;;;;4878569;29;20066;-85
2022/08/20 11:27:12;;;;;;;9.15;1.95;;;;;;;;;;4862376;29;20024;-86
2022/08/20 11:29:38;;;;;;;8.10;1.95;;;;;;;;;;4867158;29;20445;-86
2022/08/20 11:32:04;;;;;;;11.23;2.65;;;;;;;;;;4878872;29;20032;-86
2022/08/20 11:34:31;;;;;;;9.07;1.80;;;;;;;;;;4862240;29;20056;-85
2022/08/20 11:36:59;;;;;;;9.02;2.00;;;;;;;;;;4880967;29;20067;-86
2022/08/20 11:39:25;;;;;;;10.90;1.98;;;;;;;;;;4880826;29;20119;-85
2022/08/20 11:41:50;;;;;;;8.73;1.60;;;;;;;;;;4864757;29;20047;-85
2022/08/20 11:44:16;;;;;;;7.65;2.40;;;;;;;;;;4948253;29;20054;-85
2022/08/20 11:46:41;;;;;;;5.10;1.55;;;;;;;;;;4914494;29;20039;-84
2022/08/20 11:49:07;;;;;;;8.38;1.80;;;;;;;;;;4930275;29;20099;-85
2022/08/20 11:51:32;;;;;;;11.30;2.15;;;;;;;;;;4900915;29;20195;-85
2022/08/20 11:53:58;;;;;;;6.30;1.48;;;;;;;;;;4931906;29;20526;-85
2022/08/20 11:56:23;;;;;;;8.60;1.92;;;;;;;;;;4933317;29;20067;-85
2022/08/20 11:58:48;;;;;;;7.80;1.63;;;;;;;;;;4931863;29;20040;-85
2022/08/20 12:01:17;;;;;;;6.32;1.30;;;;;;;;;;4901150;29;20075;-87
2022/08/20 12:03:45;;;;;;;8.23;1.98;;;;;;;;;;4915511;29;20032;-86
2022/08/20 12:06:11;;;;;;;6.85;1.83;;;;;;;;;;4924024;29;20031;-86
2022/08/20 12:08:39;;;;;;;4.63;1.70;;;;;;;;;;4919716;29;20046;-83
2022/08/20 12:11:05;;;;;;;7.70;1.75;;;;;;;;;;4911149;29;20414;-83
2022/08/20 12:13:35;;;;;;;8.32;1.85;;;;;;;;;;4910152;29;20028;-84
2022/08/20 12:16:00;;;;;;;9.50;1.95;;;;;;;;;;4925746;29;20127;-86
2022/08/20 12:18:25;;;;;;;11.50;2.10;;;;;;;;;;4913764;29;20114;-84
2022/08/20 12:20:51;;;;;;;6.68;1.80;;;;;;;;;;4882296;29;20446;-86
2022/08/20 12:23:19;;;;;;;7.53;1.73;;;;;;;;;;4914938;29;20036;-85
2022/08/20 12:25:45;;;;;;;6.50;1.85;;;;;;;;;;4897361;29;20036;-85
2022/08/20 12:28:13;;;;;;;5.22;1.08;;;;;;;;;;4913979;29;20098;-86
2022/08/20 12:30:38;;;;;;;6.88;2.03;;;;;;;;;;4915879;29;20077;-84
2022/08/20 12:33:04;;;;;;;11.23;1.77;;;;;;;;;;4924787;29;20403;-84
2022/08/20 12:35:30;;;;;;;7.18;1.83;;;;;;;;;;4914603;29;20118;-85
2022/08/20 12:37:56;;;;;;;6.85;1.88;;;;;;;;;;4929046;29;20031;-84
2022/08/20 12:40:23;;;;;;;5.78;1.55;;;;;;;;;;4900589;29;20058;-88
2022/08/20 12:42:56;;;;;;;15.57;1.88;;;;;;;;;;4914022;29;20462;-86
2022/08/20 12:45:22;;;;;;;9.48;1.98;;;;;;;;;;4918093;29;20075;-85
2022/08/20 12:47:59;;;;;;;6.00;1.08;;;;;;;;;;4927265;29;20082;-88
2022/08/20 12:50:25;;;;;;;8.63;2.03;;;;;;;;;;4917747;29;20488;-86
2022/08/20 12:52:51;;;;;;;6.93;1.70;;;;;;;;;;4916910;29;20031;-86
2022/08/20 12:55:26;;;;;;;7.57;1.83;;;;;;;;;;4931247;29;20399;-85
2022/08/20 12:57:56;;;;;;;6.60;1.77;;;;;;;;;;4913474;29;20233;-84
2022/08/20 13:00:28;;;;;;;7.10;2.05;;;;;;;;;;4930834;29;20604;-85
2022/08/20 13:02:55;;;;;;;5.68;1.65;;;;;;;;;;4914550;29;20419;-85
2022/08/20 13:05:21;;;;;;;8.98;1.85;;;;;;;;;;4885366;29;20051;-85
2022/08/20 13:07:46;;;;;;;5.47;1.33;;;;;;;;;;4913029;29;20031;-86
2022/08/20 13:10:20;;;;;;;6.00;1.80;;;;;;;;;;4930418;29;20427;-85
2022/08/20 13:12:52;;;;;;;6.00;1.45;;;;;;;;;;4910661;29;20496;-86
2022/08/20 13:15:17;;;;;;;12.18;1.88;;;;;;;;;;4898959;29;20095;-86
2022/08/20 13:17:42;;;;;;;10.38;1.98;;;;;;;;;;4915994;29;20023;-86
2022/08/20 13:20:11;;;;;;;6.88;1.58;;;;;;;;;;4900062;29;20079;-87
2022/08/20 13:22:36;;;;;;;5.97;1.67;;;;;;;;;;4898915;29;20050;-86
2022/08/20 13:25:03;;;;;;;8.68;1.70;;;;;;;;;;4932129;29;20395;-87
2022/08/20 13:27:29;;;;;;;4.93;1.70;;;;;;;;;;4928678;29;20063;-88
2022/08/20 13:29:56;;;;;;;7.63;1.77;;;;;;;;;;4910354;29;20039;-86
2022/08/20 13:32:22;;;;;;;7.70;1.90;;;;;;;;;;4884408;29;20028;-87
2022/08/20 13:34:49;;;;;;;7.10;1.70;;;;;;;;;;4879268;29;20031;-87
2022/08/20 13:37:19;;;;;;;6.70;1.75;;;;;;;;;;4904685;29;20035;-86
2022/08/20 13:39:47;;;;;;;7.75;1.88;;;;;;;;;;4894305;29;20356;-85
2022/08/20 13:42:12;;;;;;;5.10;1.80;;;;;;;;;;4928190;29;20150;-84
2022/08/20 13:44:41;;;;;;;8.05;1.92;;;;;;;;;;4909801;29;20043;-85
2022/08/20 13:47:16;;;;;;;4.72;1.30;;;;;;;;;;4930561;29;20363;-85
2022/08/20 13:49:42;;;;;;;5.38;1.45;;;;;;;;;;4946610;29;20031;-84
2022/08/20 13:52:07;;;;;;;10.90;3.13;;;;;;;;;;4945365;29;20032;-85
2022/08/20 13:54:33;;;;;;;9.65;2.42;;;;;;;;;;4899117;29;20028;-85
2022/08/20 13:57:09;;;;;;;5.72;2.00;;;;;;;;;;4915070;29;20094;-85
2022/08/20 13:59:40;;;;;;;8.35;1.98;;;;;;;;;;4914979;29;20038;-85
2022/08/20 14:02:06;;;;;;;8.65;1.80;;;;;;;;;;4910504;29;20024;-86
2022/08/20 14:04:31;;;;;;;7.70;1.85;;;;;;;;;;4916017;29;20048;-86
2022/08/20 14:06:59;;;;;;;5.82;2.03;;;;;;;;;;4914337;29;20218;-85
2022/08/20 14:09:28;;;;;;;6.68;1.50;;;;;;;;;;4929972;29;20111;-85
2022/08/20 14:11:54;;;;;;;8.18;2.25;;;;;;;;;;4914072;29;20134;-85
2022/08/20 14:14:19;;;;;;;6.80;2.45;;;;;;;;;;4918521;29;20111;-85
2022/08/20 14:16:45;;;;;;;6.20;1.92;;;;;;;;;;4917634;29;20404;-86
2022/08/20 14:19:10;;;;;;;8.70;2.08;;;;;;;;;;4918376;29;20510;-85
2022/08/20 14:21:39;;;;;;;8.38;2.03;;;;;;;;;;4917748;29;20074;-85
2022/08/20 14:24:04;;;;;;;8.50;2.10;;;;;;;;;;4916880;29;20118;-87
2022/08/20 14:26:33;;;;;;;6.55;1.92;;;;;;;;;;4903048;29;20107;-87
2022/08/20 14:28:58;;;;;;;6.22;1.95;;;;;;;;;;4902582;29;20032;-86
2022/08/20 14:31:23;;;;;;;9.38;1.83;;;;;;;;;;4915515;29;20522;-85
2022/08/20 14:33:50;;;;;;;8.23;2.05;;;;;;;;;;4930488;29;20043;-87
2022/08/20 14:36:15;;;;;;;9.75;2.47;;;;;;;;;;4897649;29;20032;-89